Time;durP1;ratioP1;P1;durP2;ratioP2;P2;SDS_P1;SDS_P2;PMS_P1;PMS_P2;Temp;Humidity;BMP_temperature;BMP_pressure;BME280_temperature;BME280_humidity;BME280_pressure;Samples;Min_cycle;Max_cycle;Signal;HPM_P1;HPM_P2
2021/06/14 00:00:21;;;;;;;0.50;0.50;;;;;;;15.34;53.91;97597.34;29395;205;63015;-75
2021/06/14 00:00:53;;;;;;;0.50;0.50;;;;;;;15.32;53.05;97591.38;29395;199;63004;-74
2021/06/14 00:01:24;;;;;;;0.50;0.50;;;;;;;15.31;52.87;97597.94;29395;261;63009;-75
2021/06/14 00:01:55;;;;;;;0.50;0.50;;;;;;;15.30;52.73;97590.84;29395;230;63004;-74
2021/06/14 00:02:28;;;;;;;0.50;0.50;;;;;;;15.30;52.68;97596.31;29395;230;63009;-74
2021/06/14 00:02:59;;;;;;;0.43;0.43;;;;;;;15.32;53.30;97599.56;29394;202;64009;-74
2021/06/14 00:03:31;;;;;;;0.50;0.50;;;;;;;15.31;53.51;97608.06;29395;264;63008;-74
2021/06/14 00:04:02;;;;;;;0.50;0.50;;;;;;;15.28;53.36;97593.09;29395;243;63004;-74
2021/06/14 00:04:34;;;;;;;0.50;0.50;;;;;;;15.27;53.17;97598.84;29395;236;63018;-75
2021/06/14 00:05:08;;;;;;;0.50;0.50;;;;;;;15.25;53.28;97596.44;29395;210;63005;-60
2021/06/14 00:05:43;;;;;;;0.50;0.50;;;;;;;15.25;53.06;97596.44;29395;202;63009;-75
2021/06/14 00:06:14;;;;;;;0.50;0.50;;;;;;;15.25;53.12;97598.34;29395;203;63008;-75
2021/06/14 00:06:46;;;;;;;0.50;0.50;;;;;;;15.25;53.37;97601.09;29395;197;63013;-75
2021/06/14 00:07:19;;;;;;;0.50;0.50;;;;;;;15.24;53.09;97597.56;29395;213;63016;-75
2021/06/14 00:07:52;;;;;;;0.50;0.50;;;;;;;15.22;52.93;97602.53;29395;205;63012;-74
2021/06/14 00:08:25;;;;;;;0.50;0.50;;;;;;;15.22;53.46;97594.34;29394;223;64009;-75
2021/06/14 00:08:56;;;;;;;0.50;0.50;;;;;;;15.22;53.16;97597.06;29395;231;63009;-75
2021/06/14 00:09:30;;;;;;;0.50;0.50;;;;;;;15.20;53.18;97602.03;29395;255;63004;-75
2021/06/14 00:10:01;;;;;;;0.50;0.50;;;;;;;15.19;53.35;97597.69;29395;246;63009;-74
2021/06/14 00:10:34;;;;;;;0.50;0.50;;;;;;;15.17;53.11;97597.16;29395;220;63004;-74
2021/06/14 00:11:07;;;;;;;0.50;0.50;;;;;;;15.16;55.41;97611.12;29395;236;63008;-74
2021/06/14 00:11:38;;;;;;;0.50;0.50;;;;;;;15.08;54.59;97609.91;29395;214;63010;-75
2021/06/14 00:12:13;;;;;;;0.50;0.50;;;;;;;15.08;54.31;97604.47;29394;236;64014;-75
2021/06/14 00:12:44;;;;;;;0.50;0.50;;;;;;;15.08;54.16;97604.47;29395;229;63005;-75
2021/06/14 00:13:16;;;;;;;0.50;0.50;;;;;;;15.07;54.29;97608.31;29395;205;63009;-75
2021/06/14 00:13:48;;;;;;;0.50;0.50;;;;;;;15.06;56.26;97614.87;29394;263;64009;-74
2021/06/14 00:14:20;;;;;;;0.50;0.50;;;;;;;15.02;55.56;97616.59;29394;223;64013;-75
2021/06/14 00:14:53;;;;;;;0.50;0.50;;;;;;;14.97;55.89;97608.50;29394;260;64009;-76
2021/06/14 00:15:25;;;;;;;0.50;0.50;;;;;;;14.94;55.02;97609.09;29395;253;63009;-75
2021/06/14 00:15:56;;;;;;;0.50;0.50;;;;;;;14.93;55.53;97612.94;29395;310;63004;-75
2021/06/14 00:16:28;;;;;;;0.50;0.50;;;;;;;14.93;55.01;97607.47;29395;267;63009;-74
2021/06/14 00:17:03;;;;;;;0.50;0.50;;;;;;;14.93;55.32;97604.75;29395;261;63004;-74
2021/06/14 00:17:34;;;;;;;0.50;0.50;;;;;;;14.93;55.24;97607.47;29395;245;63009;-75
2021/06/14 00:18:15;;;;;;;0.50;0.50;;;;;;;14.92;55.11;97606.66;29394;202;64009;-75
2021/06/14 00:18:48;;;;;;;0.50;0.50;;;;;;;14.94;54.82;97609.09;29417;267;63008;-75
2021/06/14 00:19:19;;;;;;;0.50;0.50;;;;;;;14.92;54.60;97606.66;29395;212;63005;-60
2021/06/14 00:19:50;;;;;;;0.50;0.50;;;;;;;14.91;55.03;97604.25;29395;250;63013;-74
2021/06/14 00:20:22;;;;;;;0.50;0.50;;;;;;;14.92;54.92;97614.87;29395;213;63017;-74
2021/06/14 00:20:57;;;;;;;0.50;0.50;;;;;;;14.92;54.75;97605.88;29395;251;63025;-74
2021/06/14 00:21:29;;;;;;;0.50;0.50;;;;;;;14.91;54.32;97606.97;29395;230;63005;-74
2021/06/14 00:22:00;;;;;;;0.50;0.50;;;;;;;14.88;54.19;97605.69;29395;223;63009;-75
2021/06/14 00:22:31;;;;;;;0.50;0.50;;;;;;;14.88;54.32;97604.88;29395;229;63005;-75
2021/06/14 00:23:06;;;;;;;0.50;0.50;;;;;;;14.90;54.67;97608.13;29395;243;63009;-75
2021/06/14 00:23:38;;;;;;;0.50;0.50;;;;;;;14.87;54.78;97603.25;29394;227;64009;-75
2021/06/14 00:24:10;;;;;;;0.50;0.50;;;;;;;14.86;54.46;97598.91;29395;232;63009;-75
2021/06/14 00:24:41;;;;;;;0.50;0.50;;;;;;;14.86;54.69;97609.84;29395;218;63004;-75
2021/06/14 00:25:18;;;;;;;0.50;0.50;;;;;;;14.86;54.05;97602.44;29395;251;63009;-75
2021/06/14 00:25:50;;;;;;;0.50;0.50;;;;;;;14.86;54.36;97601.63;29395;264;63004;-74
2021/06/14 00:26:21;;;;;;;0.50;0.50;;;;;;;14.85;54.38;97600.00;29395;212;63008;-74
2021/06/14 00:26:52;;;;;;;0.50;0.50;;;;;;;14.84;54.23;97601.13;29395;260;63005;-75
2021/06/14 00:27:23;;;;;;;0.50;0.50;;;;;;;14.81;54.81;97604.47;29395;248;63009;-74
2021/06/14 00:27:55;;;;;;;0.50;0.50;;;;;;;14.79;54.84;97601.22;29395;203;63005;-73
2021/06/14 00:28:27;;;;;;;0.40;0.40;;;;;;;14.78;55.08;97596.88;29395;199;63009;-75
2021/06/14 00:28:58;;;;;;;0.50;0.50;;;;;;;14.77;55.27;97603.44;29394;227;64009;-74
2021/06/14 00:29:29;;;;;;;0.50;0.50;;;;;;;14.78;54.99;97605.06;29395;226;63009;-74
2021/06/14 00:30:01;;;;;;;0.50;0.50;;;;;;;14.77;55.20;97603.44;29395;238;63005;-75
2021/06/14 00:30:36;;;;;;;0.50;0.50;;;;;;;14.78;55.37;97605.06;29395;198;63009;-74
2021/06/14 00:31:09;;;;;;;0.50;0.50;;;;;;;14.77;55.32;97600.72;29395;222;63004;-73
2021/06/14 00:31:40;;;;;;;0.50;0.50;;;;;;;14.79;55.15;97603.94;29395;209;63009;-74
2021/06/14 00:32:11;;;;;;;0.50;0.50;;;;;;;14.79;54.75;97595.75;29395;213;63004;-74
2021/06/14 00:32:42;;;;;;;0.50;0.50;;;;;;;14.78;54.64;97599.59;29395;386;63008;-74
2021/06/14 00:33:15;;;;;;;0.50;0.50;;;;;;;14.75;54.62;97596.34;29395;228;63000;-74
2021/06/14 00:33:47;;;;;;;0.50;0.50;;;;;;;14.74;54.56;97599.38;29395;245;63008;-74
2021/06/14 00:34:18;;;;;;;0.50;0.50;;;;;;;14.73;54.81;97593.13;29394;209;64008;-74
2021/06/14 00:34:50;;;;;;;0.50;0.50;;;;;;;14.69;55.18;97603.03;29395;206;63009;-75
2021/06/14 00:35:21;;;;;;;0.50;0.50;;;;;;;14.65;55.25;97590.28;29395;248;63005;-75
2021/06/14 00:35:53;;;;;;;0.50;0.50;;;;;;;14.62;56.09;97602.59;29395;208;63009;-75
2021/06/14 00:36:24;;;;;;;0.50;0.50;;;;;;;14.58;55.77;97601.59;29395;224;63009;-74
2021/06/14 00:36:55;;;;;;;0.50;0.50;;;;;;;14.59;56.01;97599.66;29395;219;63009;-74
2021/06/14 00:37:26;;;;;;;0.50;0.50;;;;;;;14.59;55.71;97597.75;29395;209;63005;-74
2021/06/14 00:37:58;;;;;;;0.50;0.50;;;;;;;14.61;55.53;97600.97;29395;352;63009;-74
2021/06/14 00:38:29;;;;;;;0.50;0.50;;;;;;;14.62;55.62;97605.34;29395;257;63004;-74
2021/06/14 00:39:00;;;;;;;0.50;0.50;;;;;;;14.63;55.21;97596.03;29395;266;63027;-74
2021/06/14 00:39:32;;;;;;;0.50;0.50;;;;;;;14.63;55.59;97598.75;29394;221;64009;-75
2021/06/14 00:40:04;;;;;;;0.50;0.50;;;;;;;14.63;55.51;97604.22;29395;229;63009;-74
2021/06/14 00:40:36;;;;;;;0.50;0.50;;;;;;;14.62;55.13;97602.59;29395;204;63004;-74
2021/06/14 00:41:11;;;;;;;0.50;0.50;;;;;;;14.62;56.00;97602.59;29395;228;63009;-74
2021/06/14 00:41:42;;;;;;;0.50;0.50;;;;;;;14.58;55.89;97607.03;29395;209;63005;-75
2021/06/14 00:42:13;;;;;;;0.50;0.50;;;;;;;14.54;55.84;97610.72;29395;251;63018;-74
2021/06/14 00:42:45;;;;;;;0.50;0.50;;;;;;;14.53;55.69;97604.44;29395;202;63005;-75
2021/06/14 00:43:17;;;;;;;0.50;0.50;;;;;;;14.55;55.77;97599.47;29395;220;63009;-74
2021/06/14 00:43:48;;;;;;;0.50;0.50;;;;;;;14.54;55.47;97595.13;29395;197;63005;-74
2021/06/14 00:44:19;;;;;;;0.50;0.50;;;;;;;14.55;55.50;97604.94;29394;234;64013;-74
2021/06/14 00:44:50;;;;;;;0.50;0.50;;;;;;;14.56;56.06;97598.34;29394;230;64009;-74
2021/06/14 00:45:28;;;;;;;0.50;0.50;;;;;;;14.56;55.73;97598.34;29395;209;63009;-74
2021/06/14 00:46:03;;;;;;;0.50;0.50;;;;;;;14.55;55.71;97602.22;29395;215;63004;-74
2021/06/14 00:46:34;;;;;;;0.50;0.50;;;;;;;14.54;56.05;97592.41;29394;246;64013;-75
2021/06/14 00:47:09;;;;;;;0.50;0.50;;;;;;;14.53;55.86;97598.97;29395;216;63004;-74
2021/06/14 00:47:40;;;;;;;0.50;0.50;;;;;;;14.55;56.22;97593.22;29395;196;63009;-75
2021/06/14 00:48:12;;;;;;;0.50;0.50;;;;;;;14.54;56.30;97600.59;29395;313;63004;-74
2021/06/14 00:48:43;;;;;;;0.50;0.50;;;;;;;14.52;55.87;97594.63;29395;217;63009;-74
2021/06/14 00:49:14;;;;;;;0.50;0.50;;;;;;;14.51;56.02;97590.28;29395;224;63005;-74
2021/06/14 00:49:45;;;;;;;0.50;0.50;;;;;;;14.51;56.12;97600.37;29395;197;63009;-73
2021/06/14 00:50:21;;;;;;;0.50;0.50;;;;;;;14.49;56.28;97597.94;29395;225;63009;-74
2021/06/14 00:50:56;;;;;;;0.50;0.50;;;;;;;14.49;56.07;97597.94;29395;345;63009;-74
2021/06/14 00:51:28;;;;;;;0.50;0.50;;;;;;;14.46;56.71;97603.19;29395;213;63005;-74
2021/06/14 00:51:59;;;;;;;0.50;0.50;;;;;;;14.41;56.65;97598.63;29394;248;64013;-75
2021/06/14 00:52:30;;;;;;;0.50;0.50;;;;;;;14.41;56.37;97598.63;29395;203;63005;-74
2021/06/14 00:53:02;;;;;;;0.50;0.50;;;;;;;14.40;56.35;97589.59;29395;213;63009;-74
2021/06/14 00:53:40;;;;;;;0.50;0.50;;;;;;;14.41;56.50;97593.19;29395;223;63004;-74
2021/06/14 00:54:11;;;;;;;0.50;0.50;;;;;;;14.39;56.41;97587.97;29394;205;64013;-74
2021/06/14 00:54:42;;;;;;;0.50;0.50;;;;;;;14.37;56.68;97590.19;29395;206;63004;-75
2021/06/14 00:55:17;;;;;;;0.50;0.50;;;;;;;14.38;56.46;97585.56;29395;257;63025;-74
2021/06/14 00:55:49;;;;;;;0.50;0.50;;;;;;;14.37;56.37;97584.75;29395;208;63004;-74
2021/06/14 00:56:20;;;;;;;0.50;0.50;;;;;;;14.37;56.53;97583.94;29395;263;63009;-75
2021/06/14 00:56:51;;;;;;;0.50;0.50;;;;;;;14.38;56.50;97589.09;29395;246;63005;-74
2021/06/14 00:57:22;;;;;;;0.50;0.50;;;;;;;14.39;56.50;97587.16;29395;200;63009;-74
2021/06/14 00:57:53;;;;;;;0.50;0.50;;;;;;;14.39;56.51;97587.16;29395;204;63005;-74
2021/06/14 00:58:26;;;;;;;0.50;0.50;;;;;;;14.39;56.28;97584.44;29395;273;63009;-74
2021/06/14 00:58:57;;;;;;;0.50;0.50;;;;;;;14.40;56.41;97588.78;29395;237;63005;-73
2021/06/14 00:59:29;;;;;;;0.50;0.50;;;;;;;14.39;56.23;97576.25;29394;227;64013;-74
2021/06/14 01:00:01;;;;;;;5.68;5.37;;;;;;;14.36;56.16;97585.03;29395;222;63005;-74
2021/06/14 01:00:32;;;;;;;0.50;0.50;;;;;;;14.35;56.26;97586.16;29395;202;63009;-75
2021/06/14 01:01:08;;;;;;;0.50;0.50;;;;;;;14.34;56.81;97584.53;29395;262;63004;-76
2021/06/14 01:01:41;;;;;;;0.50;0.50;;;;;;;14.32;56.73;97581.28;29395;274;63009;-74
2021/06/14 01:02:12;;;;;;;0.50;0.50;;;;;;;14.30;57.23;97578.84;29395;247;63004;-74
2021/06/14 01:02:44;;;;;;;0.50;0.50;;;;;;;14.30;57.01;97575.31;29395;218;63009;-75
2021/06/14 01:03:15;;;;;;;0.50;0.50;;;;;;;14.30;57.08;97572.59;29395;320;63004;-75
2021/06/14 01:03:46;;;;;;;0.50;0.50;;;;;;;14.31;57.12;97579.66;29395;236;63009;-75
2021/06/14 01:04:18;;;;;;;0.57;0.57;;;;;;;14.29;56.83;97577.22;29395;241;63005;-74
2021/06/14 01:04:49;;;;;;;0.50;0.50;;;;;;;14.30;56.89;97578.03;29394;285;64014;-75
2021/06/14 01:05:22;;;;;;;0.50;0.50;;;;;;;14.30;57.31;97578.03;29395;203;63005;-73
2021/06/14 01:06:00;;;;;;;0.50;0.50;;;;;;;14.29;57.41;97579.16;29395;228;63009;-74
2021/06/14 01:06:31;;;;;;;0.50;0.50;;;;;;;14.28;57.16;97580.25;29395;202;63005;-74
2021/06/14 01:07:03;;;;;;;0.50;0.50;;;;;;;14.26;57.34;97583.28;29395;212;63009;-74
2021/06/14 01:07:36;;;;;;;0.60;0.60;;;;;;;14.26;57.48;97572.38;29395;257;63005;-61
2021/06/14 01:08:08;;;;;;;0.50;0.50;;;;;;;14.25;57.23;97576.22;29395;232;63009;-74
2021/06/14 01:08:44;;;;;;;0.50;0.50;;;;;;;14.26;57.22;97579.75;29395;251;63004;-74
2021/06/14 01:09:16;;;;;;;0.50;0.50;;;;;;;14.26;57.70;97571.56;29395;245;63009;-75
2021/06/14 01:09:47;;;;;;;0.50;0.50;;;;;;;14.25;57.20;97578.13;29395;250;63004;-60
2021/06/14 01:10:18;;;;;;;0.50;0.50;;;;;;;14.25;57.05;97575.41;29394;242;64013;-74
2021/06/14 01:10:50;;;;;;;0.50;0.50;;;;;;;14.23;58.15;97578.44;29395;266;63004;-74
2021/06/14 01:12:03;;;;;;;0.50;0.50;;;;;;;14.19;58.05;97576.63;29395;241;63009;-74
2021/06/14 01:12:45;;;;;;;0.55;0.55;;;;;;;14.19;57.49;97579.34;29395;227;63005;-74
2021/06/14 01:13:42;;;;;;;0.50;0.50;;;;;;;14.15;57.39;97572.88;29395;231;63009;-75
2021/06/14 01:14:37;;;;;;;0.50;0.50;;;;;;;14.15;57.22;97575.59;29395;363;63005;-74
2021/06/14 01:15:14;;;;;;;0.50;0.50;;;;;;;14.15;56.97;97576.41;29395;222;63009;-74
2021/06/14 01:16:22;;;;;;;0.50;0.50;;;;;;;14.15;57.15;97581.06;29394;224;64009;-74
2021/06/14 01:17:08;;;;;;;0.50;0.50;;;;;;;14.16;56.87;97577.22;29395;197;63009;-74
2021/06/14 01:18:02;;;;;;;0.50;0.50;;;;;;;14.17;57.19;97574.19;29395;319;63004;-74
2021/06/14 01:18:44;;;;;;;0.50;0.50;;;;;;;14.17;57.23;97576.13;29395;236;63008;-61
2021/06/14 01:19:45;;;;;;;0.50;0.50;;;;;;;14.20;56.91;97572.78;29395;203;63005;-74
2021/06/14 01:21:02;;;;;;;0.50;0.50;;;;;;;14.24;57.03;97573.78;29395;244;63009;-74
2021/06/14 01:21:53;;;;;;;0.50;0.50;;;;;;;14.17;57.20;97568.72;29394;212;64009;-73
2021/06/14 01:23:28;;;;;;;0.50;0.50;;;;;;;14.17;57.62;97573.38;29395;222;63009;-73
2021/06/14 01:24:37;;;;;;;0.50;0.50;;;;;;;14.15;57.46;97570.13;29395;448;63004;-74
2021/06/14 01:25:20;;;;;;;0.50;0.50;;;;;;;14.16;57.15;97566.31;29395;306;63009;-73
2021/06/14 01:26:09;;;;;;;0.50;0.50;;;;;;;14.16;57.26;97569.03;29394;261;64008;-73
2021/06/14 01:26:57;;;;;;;0.50;0.50;;;;;;;14.17;56.93;97567.94;29395;220;63009;-74
2021/06/14 01:27:42;;;;;;;0.50;0.50;;;;;;;14.13;57.32;97572.34;29395;312;63005;-60
2021/06/14 01:28:14;;;;;;;0.50;0.50;;;;;;;14.10;57.21;97568.31;29395;202;63009;-74
2021/06/14 01:28:47;;;;;;;0.50;0.50;;;;;;;14.09;57.65;97566.69;29395;217;63005;-74
2021/06/14 01:29:19;;;;;;;0.50;0.50;;;;;;;14.08;57.81;97563.16;29394;253;64009;-74
2021/06/14 01:29:50;;;;;;;0.50;0.50;;;;;;;14.07;57.36;97564.25;29395;229;63005;-73
2021/06/14 01:30:31;;;;;;;0.50;0.50;;;;;;;14.07;57.65;97561.53;29395;205;63009;-73
2021/06/14 01:31:04;;;;;;;0.50;0.50;;;;;;;14.09;57.84;97558.50;29416;437;64009;-74
2021/06/14 01:31:37;;;;;;;0.50;0.50;;;;;;;14.08;57.97;97560.41;29373;198;63009;-74
2021/06/14 01:32:09;;;;;;;0.50;0.50;;;;;;;14.07;57.91;97566.16;29395;281;63004;-74
2021/06/14 01:32:43;;;;;;;0.50;0.50;;;;;;;14.05;57.90;97561.00;29395;202;63009;-74
2021/06/14 01:33:18;;;;;;;0.50;0.50;;;;;;;14.06;57.70;97565.38;29395;333;63004;-75
2021/06/14 01:33:50;;;;;;;0.60;0.60;;;;;;;14.05;58.12;97565.66;29395;232;63008;-73
2021/06/14 01:34:26;;;;;;;0.50;0.50;;;;;;;14.04;57.73;97559.38;29395;252;63005;-73
2021/06/14 01:34:59;;;;;;;0.50;0.50;;;;;;;14.06;57.60;97567.28;29395;272;63009;-74
2021/06/14 01:35:36;;;;;;;0.50;0.50;;;;;;;14.06;57.53;97570.81;29395;232;63005;-72
2021/06/14 01:36:16;;;;;;;0.50;0.50;;;;;;;14.05;57.61;97566.47;29394;196;64013;-74
2021/06/14 01:36:49;;;;;;;0.50;0.50;;;;;;;14.05;57.52;97561.00;29394;281;64009;-73
2021/06/14 01:37:20;;;;;;;0.50;0.50;;;;;;;14.06;57.36;97562.63;29395;256;63009;-73
2021/06/14 01:37:56;;;;;;;0.50;0.50;;;;;;;14.08;57.35;97560.41;29395;203;63005;-73
2021/06/14 01:38:30;;;;;;;0.50;0.50;;;;;;;14.08;57.27;97557.69;29395;250;63009;-74
2021/06/14 01:39:04;;;;;;;0.50;0.50;;;;;;;14.08;57.20;97549.50;29395;263;63004;-73
2021/06/14 01:39:38;;;;;;;0.50;0.50;;;;;;;14.08;57.10;97544.03;29395;257;63009;-73
2021/06/14 01:40:17;;;;;;;0.50;0.50;;;;;;;14.08;56.99;97545.97;29394;251;64008;-73
2021/06/14 01:40:52;;;;;;;0.50;0.50;;;;;;;14.06;57.07;97548.19;29394;248;64008;-60
2021/06/14 01:41:26;;;;;;;0.50;0.50;;;;;;;14.04;57.16;97544.94;29395;214;63004;-74
2021/06/14 01:42:00;;;;;;;0.50;0.50;;;;;;;14.03;57.37;97552.31;29394;251;64014;-74
2021/06/14 01:42:32;;;;;;;0.50;0.50;;;;;;;14.04;57.84;97547.66;29395;203;63005;-74
2021/06/14 01:43:06;;;;;;;0.50;0.50;;;;;;;14.00;57.57;97552.91;29395;229;63009;-75
2021/06/14 01:43:41;;;;;;;0.50;0.50;;;;;;;14.00;57.49;97552.09;29395;256;63005;-74
2021/06/14 01:44:13;;;;;;;0.50;0.50;;;;;;;13.98;58.11;97548.84;29395;214;63009;-75
2021/06/14 01:44:49;;;;;;;0.50;0.50;;;;;;;13.94;58.43;97548.63;29395;202;63005;-74
2021/06/14 01:45:24;;;;;;;0.50;0.50;;;;;;;13.93;58.36;97547.00;29395;218;63009;-75
2021/06/14 01:45:59;;;;;;;0.50;0.50;;;;;;;13.91;58.44;97553.87;29395;222;63004;-75
2021/06/14 01:46:36;;;;;;;0.50;0.50;;;;;;;13.88;58.21;97543.56;29395;232;63018;-74
2021/06/14 01:47:09;;;;;;;0.50;0.50;;;;;;;13.88;58.36;97543.56;29394;293;64021;-74
2021/06/14 01:47:43;;;;;;;0.50;0.50;;;;;;;13.85;58.79;97539.53;29394;299;64013;-74
2021/06/14 01:48:16;;;;;;;0.50;0.50;;;;;;;13.83;58.22;97544.47;29395;368;63005;-74
2021/06/14 01:48:48;;;;;;;0.50;0.50;;;;;;;13.85;58.50;97545.00;29395;199;63009;-74
2021/06/14 01:49:22;;;;;;;0.50;0.50;;;;;;;13.84;58.22;97540.66;29395;261;63005;-74
2021/06/14 01:49:54;;;;;;;0.50;0.50;;;;;;;13.81;58.40;97543.97;29395;220;63009;-74
2021/06/14 01:50:30;;;;;;;0.50;0.50;;;;;;;13.82;58.16;97540.13;29395;214;63005;-74
2021/06/14 01:51:03;;;;;;;0.50;0.50;;;;;;;13.82;58.65;97537.41;29395;231;63009;-75
2021/06/14 01:51:38;;;;;;;0.50;0.50;;;;;;;13.83;58.38;97544.47;29395;266;63005;-74
2021/06/14 01:52:11;;;;;;;0.50;0.50;;;;;;;13.84;58.35;97542.56;29395;197;63009;-75
2021/06/14 01:52:43;;;;;;;0.50;0.50;;;;;;;13.81;58.65;97543.97;29394;218;64009;-75
2021/06/14 01:53:15;;;;;;;0.50;0.50;;;;;;;13.80;58.57;97536.88;29394;252;64013;-74
2021/06/14 01:54:03;;;;;;;0.50;0.50;;;;;;;13.80;58.57;97536.06;29395;214;63004;-74
2021/06/14 01:54:37;;;;;;;0.50;0.50;;;;;;;13.81;59.31;97543.97;29395;209;63009;-75
2021/06/14 01:55:13;;;;;;;0.50;0.50;;;;;;;13.80;58.50;97542.34;29395;408;63004;-74
2021/06/14 01:55:46;;;;;;;0.50;0.50;;;;;;;13.81;59.18;97543.97;29395;471;63009;-74
2021/06/14 01:56:18;;;;;;;0.50;0.50;;;;;;;13.82;58.85;97540.13;29395;262;63005;-74
2021/06/14 01:56:51;;;;;;;0.50;0.50;;;;;;;13.83;59.63;97538.22;29395;218;63009;-74
2021/06/14 01:57:25;;;;;;;0.50;0.50;;;;;;;13.75;59.52;97539.69;29395;200;63005;-75
2021/06/14 01:57:56;;;;;;;0.50;0.50;;;;;;;13.68;59.51;97541.97;29394;228;64013;-75
2021/06/14 01:58:32;;;;;;;0.50;0.50;;;;;;;13.67;59.83;97537.63;29394;236;64009;-73
2021/06/14 01:59:08;;;;;;;0.50;0.50;;;;;;;13.69;59.22;97540.88;29394;326;64013;-74
2021/06/14 01:59:41;;;;;;;0.50;0.50;;;;;;;13.70;58.82;97537.03;29395;240;63005;-74
2021/06/14 02:00:14;;;;;;;0.50;0.50;;;;;;;13.70;59.28;97537.03;29394;303;64013;-76
2021/06/14 02:00:46;;;;;;;0.50;0.50;;;;;;;13.68;59.38;97533.81;29395;199;63004;-74
2021/06/14 02:01:18;;;;;;;0.50;0.50;;;;;;;13.66;59.27;97530.56;29395;198;63009;-74
2021/06/14 02:01:50;;;;;;;0.50;0.50;;;;;;;13.66;59.17;97533.28;29395;216;63004;-75
2021/06/14 02:02:22;;;;;;;0.50;0.50;;;;;;;13.65;59.58;97529.75;29395;225;63009;-75
2021/06/14 02:02:54;;;;;;;0.50;0.50;;;;;;;13.65;59.45;97534.41;29395;242;63004;-74
2021/06/14 02:03:28;;;;;;;0.50;0.50;;;;;;;13.67;59.90;97532.19;29395;261;63009;-74
2021/06/14 02:04:01;;;;;;;0.50;0.50;;;;;;;13.67;59.82;97532.19;29395;236;63005;-74
2021/06/14 02:04:33;;;;;;;0.50;0.50;;;;;;;13.70;59.62;97537.84;29394;238;64014;-61
2021/06/14 02:05:07;;;;;;;0.50;0.50;;;;;;;13.69;59.40;97529.97;29395;241;63005;-75
2021/06/14 02:05:39;;;;;;;0.50;0.50;;;;;;;13.68;59.56;97533.81;29395;215;63009;-61
2021/06/14 02:06:11;;;;;;;0.50;0.50;;;;;;;13.67;59.32;97532.19;29395;205;63005;-74
2021/06/14 02:06:47;;;;;;;0.50;0.50;;;;;;;13.66;59.51;97530.56;29395;421;63009;-74
2021/06/14 02:07:20;;;;;;;0.50;0.50;;;;;;;13.68;59.30;97533.81;29395;246;63005;-74
2021/06/14 02:07:52;;;;;;;0.50;0.50;;;;;;;13.69;59.09;97532.69;29395;245;63009;-74
2021/06/14 02:08:24;;;;;;;0.50;0.50;;;;;;;13.72;58.65;97529.38;29395;207;63004;-74
2021/06/14 02:09:01;;;;;;;0.50;0.50;;;;;;;13.68;58.82;97529.16;29395;200;63009;-74
2021/06/14 02:09:33;;;;;;;0.50;0.50;;;;;;;13.65;59.08;97526.22;29394;210;64009;-74
2021/06/14 02:10:06;;;;;;;0.50;0.50;;;;;;;13.64;59.37;97530.03;29395;224;63008;-74
2021/06/14 02:10:38;;;;;;;0.50;0.50;;;;;;;13.62;59.36;97529.53;29395;199;63004;-72
2021/06/14 02:11:09;;;;;;;0.50;0.50;;;;;;;13.59;59.56;97532.84;29395;254;63009;-61
2021/06/14 02:11:44;;;;;;;0.43;0.43;;;;;;;13.59;59.16;97530.13;29395;236;63004;-74
2021/06/14 02:12:16;;;;;;;0.50;0.50;;;;;;;13.57;59.82;97529.59;29395;223;63009;-74
2021/06/14 02:12:49;;;;;;;0.50;0.50;;;;;;;13.55;59.96;97534.53;29395;230;63005;-74
2021/06/14 02:13:21;;;;;;;0.50;0.50;;;;;;;13.56;59.78;97530.72;29395;213;63024;-75
2021/06/14 02:13:52;;;;;;;0.50;0.50;;;;;;;13.56;59.55;97530.72;29395;254;63005;-75
2021/06/14 02:14:32;;;;;;;0.50;0.50;;;;;;;13.58;59.72;97528.50;29395;199;63009;-73
2021/06/14 02:15:06;;;;;;;0.50;0.50;;;;;;;13.59;59.59;97530.13;29394;238;64009;-73
2021/06/14 02:15:37;;;;;;;0.50;0.50;;;;;;;13.59;59.27;97525.47;29395;202;63009;-61
2021/06/14 02:16:09;;;;;;;0.50;0.50;;;;;;;13.58;59.15;97528.50;29395;232;63004;-75
2021/06/14 02:16:44;;;;;;;0.50;0.50;;;;;;;13.55;59.36;97529.09;29395;233;63009;-74
2021/06/14 02:17:20;;;;;;;0.50;0.50;;;;;;;13.55;59.82;97529.09;29395;254;63004;-74
2021/06/14 02:17:56;;;;;;;0.50;0.50;;;;;;;13.54;59.60;97527.47;29395;225;63008;-71
2021/06/14 02:18:27;;;;;;;0.50;0.50;;;;;;;13.54;59.60;97522.00;29395;212;63005;-73
2021/06/14 02:18:59;;;;;;;0.50;0.50;;;;;;;13.54;59.88;97527.47;29395;205;63009;-74
2021/06/14 02:19:30;;;;;;;0.50;0.50;;;;;;;13.51;60.32;97528.09;29395;220;63005;-74
2021/06/14 02:20:04;;;;;;;0.50;0.50;;;;;;;13.50;60.04;97521.00;29394;259;64014;-74
2021/06/14 02:20:35;;;;;;;0.50;0.50;;;;;;;13.48;60.76;97523.22;29395;327;63008;-74
2021/06/14 02:21:06;;;;;;;0.50;0.50;;;;;;;13.47;59.92;97522.41;29395;250;63009;-74
2021/06/14 02:21:37;;;;;;;0.50;0.50;;;;;;;13.46;60.41;97523.53;29394;225;64009;-74
2021/06/14 02:22:11;;;;;;;0.50;0.50;;;;;;;13.47;60.35;97521.59;29395;225;63009;-74
2021/06/14 02:22:42;;;;;;;0.50;0.50;;;;;;;13.47;60.31;97527.88;29395;458;63004;-75
2021/06/14 02:23:14;;;;;;;0.50;0.50;;;;;;;13.47;60.34;97527.06;29395;212;63009;-75
2021/06/14 02:23:46;;;;;;;0.50;0.50;;;;;;;13.48;60.19;97528.69;29395;268;63004;-74
2021/06/14 02:24:17;;;;;;;0.50;0.50;;;;;;;13.48;60.63;97523.22;29395;224;63009;-74
2021/06/14 02:24:52;;;;;;;0.60;0.60;;;;;;;13.49;60.26;97527.56;29395;340;63004;-74
2021/06/14 02:25:23;;;;;;;0.50;0.50;;;;;;;13.48;60.18;97523.22;29395;247;63008;-74
2021/06/14 02:25:54;;;;;;;0.50;0.50;;;;;;;13.47;60.16;97532.50;29395;254;63004;-74
2021/06/14 02:26:26;;;;;;;0.50;0.50;;;;;;;13.48;60.32;97525.94;29394;297;64014;-74
2021/06/14 02:26:57;;;;;;;0.50;0.50;;;;;;;13.48;60.09;97528.69;29395;220;63005;-74
2021/06/14 02:27:28;;;;;;;0.50;0.50;;;;;;;13.47;60.42;97530.59;29395;266;63009;-74
2021/06/14 02:27:59;;;;;;;0.50;0.50;;;;;;;13.45;60.31;97534.72;29395;258;63005;-74
2021/06/14 02:28:31;;;;;;;0.50;0.50;;;;;;;13.44;60.50;97527.66;29395;222;63009;-74
2021/06/14 02:29:03;;;;;;;0.50;0.50;;;;;;;13.41;60.77;97531.78;29395;204;63005;-74
2021/06/14 02:29:34;;;;;;;0.50;0.50;;;;;;;13.39;60.22;97529.34;29395;231;63009;-74
2021/06/14 02:30:15;;;;;;;0.50;0.50;;;;;;;13.41;60.15;97531.78;29395;222;63004;-74
2021/06/14 02:30:46;;;;;;;;;;;;;;;13.40;60.39;97530.97;29996;983;6004;-74
2021/06/14 02:31:17;;;;;;;0.60;0.60;;;;;;;13.40;60.38;97527.41;29422;230;63009;-75
2021/06/14 02:31:50;;;;;;;0.50;0.50;;;;;;;13.40;60.83;97528.22;29394;261;64008;-74
2021/06/14 02:32:21;;;;;;;0.50;0.50;;;;;;;13.40;60.54;97530.97;29395;226;63008;-61
2021/06/14 02:32:54;;;;;;;0.50;0.50;;;;;;;13.41;60.84;97535.31;29395;455;63004;-74
2021/06/14 02:33:26;;;;;;;0.50;0.50;;;;;;;13.41;60.50;97524.41;29395;306;63013;-74
2021/06/14 02:33:57;;;;;;;0.50;0.50;;;;;;;13.41;60.16;97524.41;29395;218;63005;-74
2021/06/14 02:34:29;;;;;;;0.50;0.50;;;;;;;13.40;60.68;97532.88;29395;198;63009;-74
2021/06/14 02:35:00;;;;;;;0.50;0.50;;;;;;;13.37;60.42;97528.81;29394;519;64005;-73
2021/06/14 02:35:32;;;;;;;0.50;0.50;;;;;;;13.38;60.43;97529.63;29395;402;63009;-74
2021/06/14 02:36:04;;;;;;;0.50;0.50;;;;;;;13.37;60.65;97531.53;29394;203;64009;-74
2021/06/14 02:36:37;;;;;;;0.50;0.50;;;;;;;13.35;60.86;97536.47;29395;254;63009;-60
2021/06/14 02:37:10;;;;;;;0.50;0.50;;;;;;;13.35;60.82;97536.47;29395;351;63004;-74
2021/06/14 02:37:47;;;;;;;0.50;0.50;;;;;;;13.36;60.50;97535.38;29395;220;63009;-74
2021/06/14 02:38:19;;;;;;;0.52;0.52;;;;;;;13.36;60.62;97529.94;29395;238;63004;-60
2021/06/14 02:38:51;;;;;;;0.50;0.50;;;;;;;13.36;60.24;97532.66;29395;237;63009;-74
2021/06/14 02:39:26;;;;;;;0.50;0.50;;;;;;;13.36;60.57;97531.84;29395;210;63004;-75
2021/06/14 02:39:58;;;;;;;0.50;0.50;;;;;;;13.35;60.45;97532.94;29395;204;63008;-60
2021/06/14 02:40:31;;;;;;;0.50;0.50;;;;;;;13.35;60.58;97531.03;29395;245;63005;-73
2021/06/14 02:41:04;;;;;;;0.50;0.50;;;;;;;13.36;60.81;97526.38;29395;250;63009;-74
2021/06/14 02:41:37;;;;;;;0.50;0.50;;;;;;;13.36;60.77;97532.66;29394;209;64009;-74
2021/06/14 02:42:09;;;;;;;0.50;0.50;;;;;;;13.34;60.32;97532.13;29395;270;63009;-74
2021/06/14 02:42:44;;;;;;;0.50;0.50;;;;;;;13.36;60.66;97538.09;29395;424;63005;-73
2021/06/14 02:43:15;;;;;;;0.50;0.50;;;;;;;13.34;61.51;97532.13;29395;212;63005;-74